Time;durP1;ratioP1;P1;durP2;ratioP2;P2;SDS_P1;SDS_P2;PMS_P1;PMS_P2;Temp;Humidity;BMP_temperature;BMP_pressure;BME280_temperature;BME280_humidity;BME280_pressure;Samples;Min_cycle;Max_cycle;Signal;HPM_P1;HPM_P2
2022/06/06 00:00:48;;;;;;;32.05;27.38;;;17.70;99.90;;;;;;5044579;28;20651;-67
2022/06/06 00:03:17;;;;;;;28.08;23.85;;;17.90;99.90;;;;;;5054300;28;20214;-66
2022/06/06 00:05:47;;;;;;;27.55;24.58;;;17.80;99.90;;;;;;5021167;28;20219;-68
2022/06/06 00:08:16;;;;;;;36.58;29.90;;;17.60;1.00;;;;;;5060142;28;20709;-67
2022/06/06 00:10:45;;;;;;;37.83;31.83;;;17.70;99.90;;;;;;5043089;28;20217;-67
2022/06/06 00:13:14;;;;;;;39.92;32.45;;;17.60;1.00;;;;;;5061750;28;20183;-68
2022/06/06 00:15:41;;;;;;;35.63;30.25;;;17.60;1.00;;;;;;5053267;28;20203;-68
2022/06/06 00:18:08;;;;;;;38.58;31.70;;;17.50;1.00;;;;;;5044373;28;20196;-69
2022/06/06 00:20:35;;;;;;;36.80;32.13;;;17.50;1.00;;;;;;5043046;28;20239;-69
2022/06/06 00:23:03;;;;;;;36.05;30.85;;;17.50;1.00;;;;;;5042198;28;20245;-68
2022/06/06 00:25:30;;;;;;;36.15;30.92;;;17.50;1.00;;;;;;5061326;28;20191;-67
2022/06/06 00:27:57;;;;;;;36.13;28.00;;;17.40;1.00;;;;;;5061840;28;20243;-68
2022/06/06 00:30:24;;;;;;;31.83;26.70;;;17.40;1.00;;;;;;5030896;28;20539;-68
2022/06/06 00:35:37;;;;;;;29.75;25.92;;;17.40;1.00;;;;;;5061631;28;20191;-68
2022/06/06 00:38:04;;;;;;;28.45;23.27;;;17.40;1.00;;;;;;5036984;28;20223;-69
2022/06/06 00:40:31;;;;;;;26.85;22.10;;;17.50;1.00;;;;;;5026286;28;20203;-69
2022/06/06 00:43:00;;;;;;;25.80;20.40;;;17.60;1.00;;;;;;5043441;28;20206;-68
2022/06/06 00:45:55;;;;;;;25.05;20.33;;;17.60;1.00;;;;;;5043534;28;20190;-68
2022/06/06 00:48:38;;;;;;;23.27;18.98;;;18.00;99.90;;;;;;5035988;28;20560;-70
2022/06/06 00:51:15;;;;;;;23.38;18.98;;;18.10;99.90;;;;;;5049182;28;20194;-69
2022/06/06 00:53:46;;;;;;;25.65;20.90;;;18.30;99.90;;;;;;5040621;28;20199;-69
2022/06/06 00:56:43;;;;;;;24.67;20.35;;;18.20;99.90;;;;;;5045677;28;20239;-69
2022/06/06 00:59:14;;;;;;;26.75;21.38;;;18.50;1.00;;;;;;5042843;28;20657;-70
2022/06/06 01:01:42;;;;;;;29.27;23.23;;;18.30;1.00;;;;;;5045209;28;20205;-71
2022/06/06 01:04:12;;;;;;;32.05;23.83;;;18.30;1.00;;;;;;5059444;28;20548;-69
2022/06/06 01:06:42;;;;;;;32.50;24.38;;;18.50;1.00;;;;;;5052916;28;20687;-70
2022/06/06 01:09:10;;;;;;;33.92;25.80;;;18.60;1.00;;;;;;5030285;28;20756;-70
2022/06/06 01:11:43;;;;;;;35.42;28.25;;;18.60;1.00;;;;;;5058864;28;20235;-69
2022/06/06 01:14:14;;;;;;;41.30;31.15;;;18.50;1.00;;;;;;5058000;28;20682;-68
2022/06/06 01:16:59;;;;;;;40.58;29.40;;;18.70;1.00;;;;;;5042985;28;20596;-69
2022/06/06 01:19:50;;;;;;;40.45;30.80;;;18.30;1.00;;;;;;5060831;28;20184;-68
2022/06/06 01:22:36;;;;;;;43.30;32.13;;;17.90;1.00;;;;;;5051674;28;20724;-66
2022/06/06 01:25:30;;;;;;;44.47;33.47;;;17.90;1.20;;;;;;5053076;28;20230;-68
2022/06/06 01:27:59;;;;;;;41.88;33.22;;;18.00;1.00;;;;;;5061355;28;20207;-68
2022/06/06 01:30:37;;;;;;;51.55;37.17;;;18.10;1.00;;;;;;5043582;28;20193;-68
2022/06/06 01:33:08;;;;;;;44.15;33.70;;;18.40;1.00;;;;;;5058212;28;20194;-68
2022/06/06 01:35:42;;;;;;;44.65;33.95;;;18.60;1.00;;;;;;5032856;28;20203;-67
2022/06/06 01:38:13;;;;;;;48.00;32.50;;;18.10;1.00;;;;;;5062206;28;20218;-67
2022/06/06 01:40:46;;;;;;;56.92;39.83;;;18.10;1.00;;;;;;5062724;28;20241;-68
2022/06/06 01:43:25;;;;;;;49.97;34.92;;;18.00;1.00;;;;;;5043429;28;20212;-68
2022/06/06 01:46:00;;;;;;;52.05;37.40;;;17.70;1.00;;;;;;5063883;28;20210;-68
2022/06/06 01:48:33;;;;;;;57.13;39.10;;;17.70;1.00;;;;;;5063635;28;20222;-68
2022/06/06 01:51:15;;;;;;;58.45;37.47;;;17.60;1.00;;;;;;5046755;28;20256;-68
2022/06/06 01:53:43;;;;;;;57.55;40.70;;;17.70;1.00;;;;;;5051409;28;20222;-68
2022/06/06 01:56:15;;;;;;;50.30;34.50;;;17.90;1.00;;;;;;5045733;28;20658;-70
2022/06/06 01:58:42;;;;;;;51.83;35.42;;;17.70;1.00;;;;;;5047343;28;20195;-68
2022/06/06 02:01:10;;;;;;;41.83;31.88;;;17.70;1.00;;;;;;5052387;28;20199;-68
2022/06/06 02:03:37;;;;;;;52.78;36.75;;;17.60;1.00;;;;;;5046208;28;20203;-67
2022/06/06 02:06:05;;;;;;;51.42;35.63;;;17.30;1.00;;;;;;5067346;28;20199;-68
2022/06/06 02:08:32;;;;;;;49.17;34.67;;;17.40;1.00;;;;;;5055660;28;20245;-69
2022/06/06 02:11:00;;;;;;;46.90;33.65;;;17.30;1.00;;;;;;5035693;28;20339;-68
2022/06/06 02:13:27;;;;;;;43.08;30.98;;;17.40;1.00;;;;;;5053429;28;20260;-66
2022/06/06 02:15:54;;;;;;;39.53;28.55;;;17.30;1.00;;;;;;5055537;28;20681;-67
2022/06/06 02:18:22;;;;;;;40.45;29.42;;;17.10;1.00;;;;;;5054379;28;20195;-67
2022/06/06 02:20:49;;;;;;;40.65;30.27;;;17.40;1.00;;;;;;5054766;28;20728;-67
2022/06/06 02:23:16;;;;;;;44.30;30.63;;;17.10;1.00;;;;;;5047594;28;20201;-67
2022/06/06 02:25:43;;;;;;;40.78;29.65;;;17.00;1.00;;;;;;5048191;28;20199;-68
2022/06/06 02:28:10;;;;;;;38.85;27.42;;;17.30;1.00;;;;;;5043243;28;20208;-68
2022/06/06 02:30:38;;;;;;;38.50;28.23;;;17.30;1.00;;;;;;5028928;28;20252;-68
2022/06/06 02:33:06;;;;;;;43.33;27.80;;;17.40;1.00;;;;;;5044968;28;20195;-69
2022/06/06 02:35:39;;;;;;;34.15;26.27;;;17.30;1.00;;;;;;5064413;28;20188;-70
2022/06/06 02:38:07;;;;;;;37.92;26.80;;;17.10;1.00;;;;;;5044267;28;20697;-69
2022/06/06 02:40:34;;;;;;;32.72;25.20;;;17.00;1.00;;;;;;5061178;28;20264;-67
2022/06/06 02:43:02;;;;;;;35.30;26.35;;;17.10;1.00;;;;;;5044749;28;20222;-69
2022/06/06 02:45:29;;;;;;;38.22;27.55;;;17.30;1.00;;;;;;5044335;28;20727;-68
2022/06/06 02:47:58;;;;;;;35.30;25.48;;;17.20;1.00;;;;;;5054115;28;20207;-69
2022/06/06 02:50:29;;;;;;;34.90;27.55;;;17.10;1.00;;;;;;5029215;28;20200;-69
2022/06/06 02:52:58;;;;;;;35.65;27.45;;;17.10;1.00;;;;;;5044296;28;20257;-69
2022/06/06 02:55:26;;;;;;;33.65;26.13;;;17.10;1.00;;;;;;5050444;28;20191;-68
2022/06/06 02:57:53;;;;;;;36.95;26.80;;;17.20;1.00;;;;;;5053121;28;20202;-69
2022/06/06 03:00:26;;;;;;;35.40;26.33;;;17.20;1.00;;;;;;5062876;28;20204;-68
2022/06/06 03:02:55;;;;;;;37.80;27.27;;;17.00;1.00;;;;;;5064932;28;20199;-68
2022/06/06 03:05:56;;;;;;;36.00;27.20;;;16.90;1.00;;;;;;5065541;28;20196;-68
2022/06/06 03:09:02;;;;;;;33.28;24.58;;;16.80;1.00;;;;;;5028227;28;20234;-68
2022/06/06 03:11:31;;;;;;;33.75;25.75;;;17.30;1.00;;;;;;5047048;28;20195;-69
2022/06/06 03:14:33;;;;;;;30.63;23.73;;;17.20;1.00;;;;;;5060776;28;20203;-69
2022/06/06 03:23:08;;;;;;;36.78;26.88;;;16.80;83.40;;;;;;5058637;28;20187;-67
2022/06/06 03:25:38;;;;;;;38.00;28.20;;;16.80;9.90;;;;;;5061044;28;20256;-68
2022/06/06 03:28:40;;;;;;;41.03;28.63;;;16.60;99.90;;;;;;5061014;28;20215;-68
2022/06/06 03:31:40;;;;;;;36.45;28.08;;;16.60;99.90;;;;;;5044087;28;20253;-67
2022/06/06 03:34:25;;;;;;;39.60;29.87;;;16.60;99.90;;;;;;5060921;28;20753;-67
2022/06/06 03:37:17;;;;;;;38.63;27.50;;;16.50;99.90;;;;;;5061919;28;20249;-69
2022/06/06 03:39:53;;;;;;;42.08;30.38;;;16.60;99.90;;;;;;5045267;28;20199;-68
2022/06/06 03:42:39;;;;;;;38.83;29.80;;;16.20;1.00;;;;;;5061519;28;20206;-68
2022/06/06 03:45:25;;;;;;;41.50;28.80;;;16.40;1.00;;;;;;5061703;28;20207;-69
2022/06/06 03:48:13;;;;;;;38.30;29.03;;;16.40;1.00;;;;;;5042211;28;20318;-68
2022/06/06 03:51:07;;;;;;;38.25;28.63;;;16.30;1.00;;;;;;5061105;28;20689;-69
2022/06/06 03:53:55;;;;;;;32.28;26.02;;;16.40;1.00;;;;;;5035811;28;20210;-67
2022/06/06 03:56:30;;;;;;;36.13;26.50;;;16.50;1.00;;;;;;5061794;28;20203;-67
2022/06/06 03:58:58;;;;;;;33.28;24.48;;;16.60;99.90;;;;;;5059644;28;20207;-68
2022/06/06 04:01:26;;;;;;;31.33;24.65;;;16.90;99.90;;;;;;5047076;28;20195;-68
2022/06/06 04:03:53;;;;;;;32.03;23.67;;;16.90;36.60;;;;;;5042555;28;20294;-68
2022/06/06 04:06:21;;;;;;;30.45;22.70;;;16.70;99.90;;;;;;5063437;28;20195;-66
2022/06/06 04:08:47;;;;;;;31.67;22.75;;;16.70;99.90;;;;;;5060197;28;20241;-65
2022/06/06 04:11:15;;;;;;;32.42;22.30;;;16.70;99.90;;;;;;5043851;28;20287;-66
2022/06/06 04:14:05;;;;;;;31.70;24.08;;;16.50;99.90;;;;;;5062881;28;20265;-68
2022/06/06 04:16:44;;;;;;;30.05;21.88;;;16.70;99.90;;;;;;5058148;28;21273;-69
2022/06/06 04:19:11;;;;;;;28.40;22.52;;;16.70;99.90;;;;;;5043290;28;20197;-68
2022/06/06 04:21:59;;;;;;;32.65;25.52;;;17.30;94.70;;;;;;5057710;28;20342;-68
2022/06/06 04:24:54;;;;;;;44.92;38.13;;;17.60;1.00;;;;;;5033610;28;20202;-70
2022/06/06 04:27:38;;;;;;;33.55;27.25;;;17.50;1.00;;;;;;5053306;28;20247;-70
2022/06/06 04:30:21;;;;;;;39.88;31.90;;;17.40;1.00;;;;;;5061498;28;20673;-69
2022/06/06 04:33:12;;;;;;;32.13;26.52;;;17.30;1.00;;;;;;5048971;28;20218;-69
2022/06/06 04:35:46;;;;;;;29.80;23.83;;;17.30;1.00;;;;;;5050809;28;21092;-68
2022/06/06 04:38:35;;;;;;;32.63;25.52;;;17.60;1.00;;;;;;5058696;28;20220;-69
2022/06/06 04:41:21;;;;;;;31.15;23.42;;;17.60;1.00;;;;;;5062339;28;20300;-68
2022/06/06 04:44:15;;;;;;;28.20;21.92;;;17.60;1.00;;;;;;5058137;28;20232;-68
2022/06/06 04:46:54;;;;;;;31.15;24.88;;;17.90;1.00;;;;;;5050859;28;20207;-69
2022/06/06 04:49:23;;;;;;;29.85;24.42;;;17.90;1.00;;;;;;5061634;28;20226;-69
2022/06/06 04:51:50;;;;;;;29.33;22.70;;;17.70;1.00;;;;;;5059224;28;20203;-68
2022/06/06 04:54:22;;;;;;;32.00;26.23;;;17.60;1.00;;;;;;5061040;28;20194;-69
2022/06/06 04:56:54;;;;;;;23.83;19.30;;;17.70;1.00;;;;;;5060500;28;20191;-69
2022/06/06 04:59:24;;;;;;;22.33;16.90;;;17.80;1.00;;;;;;5042854;28;20233;-69
2022/06/06 05:01:51;;;;;;;21.55;17.65;;;17.60;1.00;;;;;;5042416;28;20191;-69
2022/06/06 05:04:18;;;;;;;25.15;17.83;;;17.10;1.40;;;;;;5042176;28;20282;-70
2022/06/06 05:06:51;;;;;;;23.20;17.52;;;16.70;99.90;;;;;;5043722;28;20204;-69
2022/06/06 05:09:33;;;;;;;23.25;16.55;;;16.70;99.90;;;;;;5059768;28;20211;-67
2022/06/06 05:12:20;;;;;;;22.98;16.83;;;16.70;99.90;;;;;;5055805;28;20195;-68
2022/06/06 05:15:07;;;;;;;21.85;17.38;;;16.80;99.90;;;;;;5044229;28;20191;-68
2022/06/06 05:17:49;;;;;;;20.25;15.27;;;17.10;99.90;;;;;;5035983;28;20244;-67
2022/06/06 05:20:38;;;;;;;19.48;14.95;;;17.30;1.00;;;;;;5057906;28;20231;-67
2022/06/06 05:23:23;;;;;;;16.50;12.98;;;17.30;18.90;;;;;;5045083;28;20735;-67
2022/06/06 05:26:09;;;;;;;20.02;14.55;;;17.60;1.00;;;;;;5041445;28;20313;-68
2022/06/06 05:28:52;;;;;;;17.65;14.00;;;17.40;1.00;;;;;;5032015;28;20268;-67
2022/06/06 05:31:26;;;;;;;16.10;12.90;;;17.40;1.00;;;;;;5030753;28;20191;-67
2022/06/06 05:33:58;;;;;;;17.88;12.75;;;17.30;1.00;;;;;;5043721;28;20202;-68
2022/06/06 05:37:07;;;;;;;14.90;11.55;;;17.40;1.00;;;;;;5033136;28;20203;-67
2022/06/06 05:40:04;;;;;;;13.18;10.82;;;17.30;1.00;;;;;;5046813;28;20195;-67
2022/06/06 05:42:41;;;;;;;12.65;10.05;;;17.60;1.00;;;;;;5040718;28;21929;-67
2022/06/06 05:45:08;;;;;;;14.65;9.60;;;18.00;1.00;;;;;;5050480;28;20229;-69
2022/06/06 05:47:49;;;;;;;13.85;8.32;;;18.30;99.90;;;;;;5058419;28;20248;-68
2022/06/06 05:50:36;;;;;;;10.38;8.73;;;18.60;99.90;;;;;;5052323;28;20212;-68
2022/06/06 05:53:14;;;;;;;10.02;7.50;;;18.60;40.80;;;;;;5011509;28;20815;-67
2022/06/06 05:55:53;;;;;;;10.98;7.38;;;18.70;1.00;;;;;;5059732;28;20653;-66
2022/06/06 05:58:32;;;;;;;9.73;7.25;;;18.90;41.50;;;;;;5054850;28;20198;-66
2022/06/06 06:01:28;;;;;;;8.65;6.05;;;18.70;41.30;;;;;;5041952;28;20206;-69
2022/06/06 06:04:23;;;;;;;8.48;5.82;;;19.30;1.00;;;;;;5043249;28;20290;-69
2022/06/06 06:06:50;;;;;;;9.55;6.60;;;21.00;1.00;;;;;;5059344;28;20195;-69
2022/06/06 06:09:26;;;;;;;6.78;5.43;;;20.50;1.00;;;;;;5056265;28;20219;-69
2022/06/06 06:12:08;;;;;;;5.90;4.75;;;20.40;1.00;;;;;;5058806;28;20190;-70
2022/06/06 06:14:41;;;;;;;8.02;5.40;;;20.00;1.00;;;;;;5055109;28;20298;-71
2022/06/06 06:17:10;;;;;;;7.13;5.60;;;20.10;1.00;;;;;;5057803;28;20237;-68
2022/06/06 06:19:49;;;;;;;5.95;5.25;;;19.50;1.00;;;;;;5047018;28;20249;-68
2022/06/06 06:22:17;;;;;;;6.43;4.50;;;19.30;1.00;;;;;;5062014;28;20187;-68
2022/06/06 06:24:45;;;;;;;6.97;5.15;;;19.60;1.00;;;;;;5061170;28;20195;-69
2022/06/06 06:27:16;;;;;;;7.22;6.15;;;19.40;1.00;;;;;;5029246;28;20296;-68
2022/06/06 06:29:43;;;;;;;8.60;5.20;;;19.60;1.00;;;;;;5042518;28;20652;-67
2022/06/06 06:32:40;;;;;;;8.05;6.35;;;19.90;1.00;;;;;;5040010;28;20277;-69
2022/06/06 06:35:44;;;;;;;6.45;5.78;;;19.90;1.00;;;;;;4979648;28;20206;-67
2022/06/06 06:38:23;;;;;;;7.47;4.85;;;20.00;1.00;;;;;;5053475;28;20219;-68
2022/06/06 06:41:01;;;;;;;6.53;5.40;;;20.70;1.00;;;;;;5055679;28;20264;-67
2022/06/06 06:44:15;;;;;;;7.38;5.65;;;20.30;1.00;;;;;;5054479;28;20613;-67
2022/06/06 06:46:57;;;;;;;7.25;5.72;;;20.30;1.00;;;;;;5046586;28;20207;-67
2022/06/06 06:49:40;;;;;;;8.00;5.93;;;20.20;1.00;;;;;;5065192;28;20269;-68
2022/06/06 06:52:18;;;;;;;11.25;6.05;;;20.50;1.00;;;;;;5062640;28;20191;-67
2022/06/06 06:55:08;;;;;;;8.40;7.35;;;20.70;1.00;;;;;;5064524;28;20198;-68
2022/06/06 06:58:14;;;;;;;9.88;8.68;;;20.70;99.90;;;;;;5060196;28;21027;-67
2022/06/06 07:00:52;;;;;;;6.05;5.43;;;21.90;99.90;;;;;;5009345;28;20195;-68
2022/06/06 07:09:34;;;;;;;8.15;7.13;;;27.80;99.90;;;;;;5058000;28;20578;-68
2022/06/06 07:12:29;;;;;;;7.93;5.55;;;27.90;99.90;;;;;;5047587;28;20196;-68
2022/06/06 07:15:16;;;;;;;8.48;5.30;;;27.70;99.90;;;;;;5060539;28;20195;-68
2022/06/06 07:17:51;;;;;;;6.43;5.78;;;29.10;99.90;;;;;;5054202;28;20744;-68
2022/06/06 07:20:20;;;;;;;4.47;3.47;;;28.80;99.90;;;;;;5039639;28;20224;-67
2022/06/06 07:23:02;;;;;;;4.65;3.33;;;29.00;99.90;;;;;;5024595;28;20242;-67
2022/06/06 07:25:36;;;;;;;4.05;3.60;;;29.30;99.90;;;;;;5037031;28;20623;-68
2022/06/06 07:28:16;;;;;;;6.25;4.13;;;28.90;99.90;;;;;;5041040;28;20195;-68
2022/06/06 07:31:06;;;;;;;4.82;3.80;;;25.70;99.90;;;;;;5042693;28;20195;-67
2022/06/06 07:33:58;;;;;;;2.95;2.50;;;26.60;99.90;;;;;;5043015;28;20279;-68
2022/06/06 07:36:50;;;;;;;4.15;2.97;;;27.00;99.90;;;;;;5044465;28;20199;-67
2022/06/06 07:39:23;;;;;;;4.38;3.25;;;24.30;99.90;;;;;;5040964;28;20706;-67
2022/06/06 07:42:18;;;;;;;4.22;3.10;;;24.60;99.90;;;;;;5050438;28;20223;-67
2022/06/06 07:45:09;;;;;;;5.60;4.55;;;24.10;99.90;;;;;;5044106;28;20606;-67
2022/06/06 07:47:45;;;;;;;4.65;3.47;;;24.30;99.90;;;;;;5045995;28;20208;-67
2022/06/06 07:50:23;;;;;;;4.13;2.90;;;25.40;99.90;;;;;;5044507;28;20242;-68
2022/06/06 07:52:56;;;;;;;4.05;3.03;;;27.10;99.90;;;;;;5049419;28;20197;-68
2022/06/06 07:55:28;;;;;;;6.60;2.88;;;27.40;99.90;;;;;;5056922;28;20201;-68
2022/06/06 07:57:58;;;;;;;3.22;2.60;;;25.90;99.90;;;;;;5045481;28;20265;-68
2022/06/06 08:00:28;;;;;;;5.20;2.70;;;26.50;99.90;;;;;;5048866;28;20202;-67
2022/06/06 08:02:57;;;;;;;2.78;2.50;;;27.00;99.90;;;;;;5039337;28;20192;-67
2022/06/06 08:05:43;;;;;;;2.60;2.40;;;27.70;99.90;;;;;;5058954;28;20196;-68
2022/06/06 08:08:41;;;;;;;3.10;2.35;;;29.00;99.90;;;;;;5046102;28;20265;-67
2022/06/06 08:11:47;;;;;;;5.47;2.53;;;28.30;99.90;;;;;;5043143;28;20669;-67
2022/06/06 08:14:17;;;;;;;4.65;3.25;;;29.30;99.90;;;;;;5030853;28;20231;-66
2022/06/06 08:17:13;;;;;;;3.58;3.28;;;29.10;99.90;;;;;;5038357;28;20239;-67
2022/06/06 08:20:20;;;;;;;3.85;3.42;;;30.30;99.90;;;;;;5039921;28;20261;-67
2022/06/06 08:22:48;;;;;;;4.32;3.92;;;30.20;99.90;;;;;;5020353;28;20276;-68
2022/06/06 08:25:16;;;;;;;4.30;3.90;;;30.70;99.90;;;;;;5058322;28;20199;-67
2022/06/06 08:27:47;;;;;;;3.25;2.85;;;32.40;99.90;;;;;;5058810;28;20248;-68
2022/06/06 08:30:15;;;;;;;3.88;3.47;;;32.90;99.90;;;;;;5057558;28;20211;-67
2022/06/06 08:32:45;;;;;;;2.67;2.47;;;33.90;99.90;;;;;;5025305;28;20201;-67
2022/06/06 08:35:12;;;;;;;3.72;2.03;;;32.70;99.90;;;;;;5058205;28;20602;-69
2022/06/06 08:37:42;;;;;;;3.47;2.97;;;32.30;99.90;;;;;;5046033;28;20223;-67
2022/06/06 08:40:30;;;;;;;4.80;1.80;;;33.30;99.90;;;;;;5047167;28;20847;-68
2022/06/06 08:43:03;;;;;;;2.85;1.98;;;31.40;99.90;;;;;;5056990;28;20343;-67
2022/06/06 08:45:52;;;;;;;3.30;2.00;;;30.60;99.90;;;;;;5055729;28;21101;-66
2022/06/06 08:48:41;;;;;;;3.80;2.08;;;29.70;99.90;;;;;;5039548;28;20223;-66
2022/06/06 08:51:31;;;;;;;2.63;2.08;;;30.90;99.90;;;;;;5056721;28;20692;-68
2022/06/06 08:54:44;;;;;;;2.83;1.92;;;32.60;99.90;;;;;;5056131;28;20211;-66
2022/06/06 08:57:28;;;;;;;3.67;1.98;;;31.10;99.90;;;;;;4981870;28;20197;-68
2022/06/06 08:59:58;;;;;;;2.60;1.58;;;32.70;99.90;;;;;;5038519;28;20663;-66
2022/06/06 09:02:37;;;;;;;5.78;1.50;;;30.80;99.90;;;;;;5049155;28;20678;-67
2022/06/06 09:05:16;;;;;;;4.45;1.80;;;29.40;99.90;;;;;;5029934;28;20210;-68
2022/06/06 09:08:35;;;;;;;3.80;1.98;;;31.40;99.90;;;;;;5044831;28;20658;-67
2022/06/06 09:11:29;;;;;;;3.88;1.75;;;32.40;99.90;;;;;;5045309;28;20211;-66
2022/06/06 09:14:43;;;;;;;2.00;1.50;;;33.50;99.90;;;;;;5022765;28;20204;-68
2022/06/06 09:17:31;;;;;;;2.88;1.85;;;34.20;99.90;;;;;;5022843;28;20199;-68
2022/06/06 09:20:13;;;;;;;2.42;1.80;;;33.20;99.90;;;;;;5047654;28;20223;-67
2022/06/06 09:22:44;;;;;;;4.00;1.90;;;28.30;99.90;;;;;;5037165;28;20183;-68
2022/06/06 09:25:48;;;;;;;2.65;1.70;;;26.10;99.90;;;;;;5038452;28;20199;-68
2022/06/06 09:28:36;;;;;;;4.20;1.80;;;26.20;99.90;;;;;;5041898;28;20270;-66
2022/06/06 09:31:38;;;;;;;2.22;1.70;;;24.60;99.90;;;;;;5052021;28;20211;-66
2022/06/06 09:34:39;;;;;;;2.63;1.52;;;26.90;99.90;;;;;;5046018;28;20194;-66
2022/06/06 09:37:37;;;;;;;2.38;1.40;;;29.50;99.90;;;;;;5038229;28;20244;-68
2022/06/06 09:40:17;;;;;;;4.28;1.98;;;29.50;99.90;;;;;;5040350;28;20207;-67
2022/06/06 09:43:03;;;;;;;1.52;1.00;;;31.80;99.90;;;;;;5038027;28;20248;-67
2022/06/06 09:45:34;;;;;;;2.15;1.45;;;32.80;99.90;;;;;;5037072;28;20195;-68
2022/06/06 09:48:19;;;;;;;2.08;1.17;;;32.90;99.90;;;;;;5034890;28;20198;-68
2022/06/06 09:51:38;;;;;;;1.88;1.15;;;33.20;99.90;;;;;;5040564;28;20214;-67
2022/06/06 10:00:27;;;;;;;1.27;1.17;;;28.60;99.90;;;;;;5056988;28;20191;-68
2022/06/06 10:03:16;;;;;;;0.98;0.90;;;27.00;99.90;;;;;;5058777;28;20191;-68
2022/06/06 10:05:46;;;;;;;3.72;1.15;;;27.10;99.90;;;;;;5057764;28;20253;-67
2022/06/06 10:09:01;;;;;;;3.22;1.10;;;26.80;99.90;;;;;;5040060;28;20693;-67
2022/06/06 10:11:53;;;;;;;6.35;5.57;;;28.10;99.90;;;;;;5027113;28;20207;-67
2022/06/06 10:14:28;;;;;;;5.05;4.55;;;28.40;99.90;;;;;;5031073;28;20190;-66
2022/06/06 10:17:33;;;;;;;2.88;2.30;;;28.60;99.90;;;;;;5046634;28;20203;-67
2022/06/06 10:20:47;;;;;;;2.35;1.95;;;28.80;99.90;;;;;;5056749;28;20226;-67
2022/06/06 10:23:38;;;;;;;2.92;2.63;;;27.70;99.90;;;;;;5049993;28;20898;-68
2022/06/06 10:26:35;;;;;;;2.55;2.20;;;29.10;99.90;;;;;;5055698;28;20207;-67
2022/06/06 10:32:46;;;;;;;1.70;1.60;;;27.00;99.90;;;;;;5059899;28;20716;-68
2022/06/06 10:35:29;;;;;;;1.88;1.20;;;26.20;99.90;;;;;;5046224;28;20268;-68
2022/06/06 10:38:11;;;;;;;2.00;1.10;;;25.60;99.90;;;;;;5051393;28;20222;-69
2022/06/06 10:41:04;;;;;;;3.58;1.48;;;25.30;99.90;;;;;;5044811;28;20559;-68
2022/06/06 10:44:02;;;;;;;1.40;1.30;;;26.60;99.90;;;;;;5048592;28;20206;-67
2022/06/06 10:46:49;;;;;;;3.65;1.50;;;28.00;99.90;;;;;;5038031;28;20210;-70
2022/06/06 10:49:23;;;;;;;2.33;1.50;;;28.10;99.90;;;;;;5060563;28;20217;-69
2022/06/06 10:52:17;;;;;;;1.42;1.33;;;26.90;99.90;;;;;;5061072;28;20199;-69
2022/06/06 10:55:16;;;;;;;3.10;1.30;;;26.00;99.90;;;;;;5026801;28;20200;-68
2022/06/06 10:58:05;;;;;;;0.95;0.88;;;24.70;99.90;;;;;;5062919;28;20195;-69
2022/06/06 11:00:34;;;;;;;2.95;1.10;;;23.60;99.90;;;;;;5052238;28;20262;-69
2022/06/06 11:03:29;;;;;;;1.30;1.20;;;23.00;99.90;;;;;;5063780;28;20192;-70
2022/06/06 11:06:41;;;;;;;1.45;0.80;;;23.00;99.90;;;;;;5041609;28;20199;-68
2022/06/06 11:09:39;;;;;;;1.65;0.90;;;23.60;99.90;;;;;;5001537;28;20208;-68
2022/06/06 11:12:34;;;;;;;1.05;0.80;;;26.10;99.90;;;;;;5056986;28;20195;-68
2022/06/06 11:15:03;;;;;;;1.35;0.88;;;28.00;99.90;;;;;;5042570;28;20188;-69
2022/06/06 11:17:33;;;;;;;1.27;0.80;;;26.90;99.90;;;;;;5047842;28;20763;-68
2022/06/06 11:20:31;;;;;;;5.45;1.20;;;25.70;99.90;;;;;;5019687;28;20235;-68
2022/06/06 11:23:29;;;;;;;2.00;1.15;;;26.90;99.90;;;;;;5044270;28;20255;-68
2022/06/06 11:26:23;;;;;;;1.30;1.02;;;25.10;99.90;;;;;;5042963;28;20687;-68
2022/06/06 11:29:10;;;;;;;1.52;1.13;;;25.60;99.90;;;;;;5032899;28;20215;-69
2022/06/06 11:31:53;;;;;;;1.00;0.80;;;27.30;99.90;;;;;;5036859;28;20262;-69
2022/06/06 11:34:32;;;;;;;2.08;1.17;;;26.10;99.90;;;;;;5037520;28;20270;-68
2022/06/06 11:37:05;;;;;;;1.30;1.10;;;25.00;99.90;;;;;;5040026;28;20195;-69
2022/06/06 11:40:06;;;;;;;1.25;0.93;;;23.80;99.90;;;;;;5026851;28;20204;-69
2022/06/06 11:42:45;;;;;;;2.38;0.90;;;23.00;99.90;;;;;;5037720;28;20196;-68
2022/06/06 11:45:20;;;;;;;1.77;1.40;;;22.70;99.90;;;;;;5037390;28;20289;-68
2022/06/06 11:48:24;;;;;;;2.58;2.20;;;23.50;99.90;;;;;;5043179;28;20295;-69
2022/06/06 11:51:06;;;;;;;2.10;1.10;;;23.50;99.90;;;;;;5027207;28;20223;-67
2022/06/06 11:53:42;;;;;;;3.08;1.40;;;24.30;99.90;;;;;;5033887;28;20204;-69
2022/06/06 11:56:51;;;;;;;1.63;1.42;;;24.00;99.90;;;;;;5035911;28;20551;-67
2022/06/06 11:59:21;;;;;;;2.58;1.10;;;23.70;99.90;;;;;;5034433;28;20188;-69
2022/06/06 12:01:54;;;;;;;3.10;1.02;;;22.90;99.90;;;;;;5038653;28;20195;-69
2022/06/06 12:04:42;;;;;;;4.78;1.10;;;24.00;99.90;;;;;;5048012;28;20207;-69
2022/06/06 12:07:31;;;;;;;1.13;1.00;;;23.70;99.90;;;;;;5036175;28;20184;-68
2022/06/06 12:10:07;;;;;;;1.67;0.82;;;22.30;99.90;;;;;;5054430;28;20211;-68
2022/06/06 12:12:48;;;;;;;2.10;1.02;;;22.80;99.90;;;;;;5036215;28;20188;-68
2022/06/06 12:15:27;;;;;;;4.60;1.55;;;22.80;99.90;;;;;;5053346;28;20195;-68
2022/06/06 12:18:20;;;;;;;6.78;6.18;;;22.70;99.90;;;;;;5035313;28;20192;-68
2022/06/06 12:21:31;;;;;;;2.58;2.22;;;23.70;99.90;;;;;;5048765;28;20234;-67
2022/06/06 12:24:15;;;;;;;2.42;1.40;;;23.80;99.90;;;;;;5040094;28;20194;-66
2022/06/06 12:27:14;;;;;;;2.80;2.45;;;23.20;99.90;;;;;;5056459;28;20226;-67
2022/06/06 12:29:49;;;;;;;2.35;1.00;;;23.20;99.90;;;;;;5054792;28;20258;-68
2022/06/06 12:32:31;;;;;;;1.60;1.25;;;23.30;99.90;;;;;;5059387;28;20182;-68
2022/06/06 12:35:11;;;;;;;1.10;1.00;;;23.10;99.90;;;;;;5046803;28;20202;-67
2022/06/06 12:37:54;;;;;;;0.93;0.85;;;23.40;99.90;;;;;;5056697;28;20210;-68
2022/06/06 12:40:48;;;;;;;1.33;1.10;;;23.90;99.90;;;;;;5052885;28;20194;-67
2022/06/06 12:43:34;;;;;;;6.10;3.92;;;24.00;99.90;;;;;;5010356;28;20230;-68
2022/06/06 12:46:33;;;;;;;5.13;3.30;;;23.60;99.90;;;;;;5047336;28;20207;-69
2022/06/06 12:49:39;;;;;;;4.47;2.92;;;23.30;99.90;;;;;;5030279;28;21684;-68
2022/06/06 12:52:25;;;;;;;3.30;2.00;;;22.60;99.90;;;;;;5056814;28;20195;-68
2022/06/06 12:57:59;;;;;;;5.43;2.70;;;22.70;99.90;;;;;;5054715;28;20195;-69
2022/06/06 13:03:36;;;;;;;2.13;1.52;;;23.50;99.90;;;;;;5056155;28;20642;-69
2022/06/06 13:06:18;;;;;;;2.60;1.77;;;23.00;99.90;;;;;;5050444;28;20199;-70
2022/06/06 13:09:08;;;;;;;2.78;2.22;;;23.20;99.90;;;;;;5052267;28;20233;-68
2022/06/06 13:11:59;;;;;;;3.42;1.65;;;23.90;99.90;;;;;;5024903;28;20226;-69
2022/06/06 13:15:03;;;;;;;2.95;1.20;;;23.90;99.90;;;;;;5052490;28;20202;-67
2022/06/06 13:17:55;;;;;;;2.75;1.77;;;22.80;99.90;;;;;;5025751;28;20199;-66
2022/06/06 13:20:51;;;;;;;1.60;1.35;;;22.10;99.90;;;;;;5039183;28;20231;-66
2022/06/06 13:23:27;;;;;;;3.90;1.42;;;22.20;99.90;;;;;;5050850;28;21269;-67
2022/06/06 13:26:15;;;;;;;3.05;1.27;;;22.60;99.90;;;;;;5043231;28;20198;-67
2022/06/06 13:28:51;;;;;;;1.38;1.15;;;22.40;99.90;;;;;;5052219;28;20195;-68
2022/06/06 13:31:23;;;;;;;4.82;1.65;;;22.40;99.90;;;;;;5032529;28;20242;-67
2022/06/06 13:34:15;;;;;;;1.85;0.90;;;22.50;99.90;;;;;;5037747;28;20190;-66
2022/06/06 13:37:18;;;;;;;1.65;0.93;;;22.00;99.90;;;;;;5040540;28;20194;-67
2022/06/06 13:40:09;;;;;;;1.58;1.30;;;22.10;99.90;;;;;;5027859;28;20244;-68
2022/06/06 13:43:11;;;;;;;5.68;0.90;;;22.00;99.90;;;;;;5058036;28;20229;-68
2022/06/06 13:45:50;;;;;;;2.25;1.20;;;21.50;99.90;;;;;;4956964;28;20206;-68
2022/06/06 13:48:43;;;;;;;2.08;1.30;;;21.80;99.90;;;;;;5057164;28;20205;-67
2022/06/06 13:51:20;;;;;;;2.55;1.10;;;21.80;99.90;;;;;;5056691;28;20208;-68
2022/06/06 13:53:58;;;;;;;2.17;1.23;;;21.70;99.90;;;;;;5057263;28;20672;-67
2022/06/06 13:56:53;;;;;;;2.20;1.00;;;21.80;99.90;;;;;;5059901;28;20315;-67
2022/06/06 13:59:32;;;;;;;1.83;1.27;;;21.90;99.90;;;;;;5057931;28;20187;-67
2022/06/06 14:02:28;;;;;;;1.63;1.20;;;22.50;99.90;;;;;;5055360;28;21097;-68
2022/06/06 14:05:33;;;;;;;2.00;1.27;;;22.60;99.90;;;;;;5016031;28;20203;-69
2022/06/06 14:08:13;;;;;;;2.85;1.25;;;22.80;99.90;;;;;;5055558;28;20249;-68
2022/06/06 14:11:07;;;;;;;1.60;1.20;;;22.70;99.90;;;;;;5055941;28;20313;-68
2022/06/06 14:13:54;;;;;;;1.70;1.10;;;22.80;99.90;;;;;;5043402;28;20195;-69
2022/06/06 14:16:44;;;;;;;1.45;1.23;;;22.60;99.90;;;;;;5042552;28;20199;-68
2022/06/06 14:19:16;;;;;;;1.80;1.30;;;22.50;99.90;;;;;;5043953;28;20193;-68
2022/06/06 14:21:50;;;;;;;1.63;1.38;;;22.60;99.90;;;;;;5058868;28;20468;-69
2022/06/06 14:24:21;;;;;;;3.30;1.80;;;23.20;99.90;;;;;;5055651;28;20861;-68
2022/06/06 14:27:05;;;;;;;2.50;1.48;;;23.50;99.90;;;;;;5039093;28;20208;-69